createdAt,value
2019-01-31T00:02:45.824Z,8.47
2019-01-31T00:05:23.004Z,9.00
2019-01-31T00:08:00.372Z,7.07
2019-01-31T00:10:46.863Z,8.50
2019-01-31T00:13:32.691Z,8.60
2019-01-31T00:16:22.123Z,5.50
2019-01-31T00:18:56.195Z,8.43
2019-01-31T00:21:45.436Z,4.63
2019-01-31T00:24:28.746Z,9.47
2019-01-31T00:27:05.416Z,7.97
2019-01-31T00:29:42.593Z,3.93
2019-01-31T00:32:17.204Z,6.93
2019-01-31T00:35:00.880Z,6.73
2019-01-31T00:37:44.154Z,5.53
2019-01-31T00:40:30.463Z,7.83
2019-01-31T00:43:10.647Z,10.93
2019-01-31T00:45:50.275Z,11.17
2019-01-31T00:48:24.527Z,11.90
2019-01-31T00:51:11.082Z,7.90
2019-01-31T00:53:45.064Z,11.73
2019-01-31T00:56:19.336Z,12.23
2019-01-31T00:58:53.462Z,12.97
2019-01-31T01:01:51.947Z,11.13
2019-01-31T01:04:55.039Z,11.90
2019-01-31T01:07:52.994Z,9.20
2019-01-31T01:10:54.407Z,8.10
2019-01-31T01:13:55.743Z,7.13
2019-01-31T01:16:35.772Z,8.00
2019-01-31T01:19:10.351Z,6.50
2019-01-31T01:21:44.831Z,11.50
2019-01-31T01:24:22.128Z,8.83
2019-01-31T01:26:59.031Z,8.97
2019-01-31T01:30:01.529Z,8.70
2019-01-31T01:32:45.003Z,8.80
2019-01-31T01:35:22.054Z,8.40
2019-01-31T01:37:59.320Z,11.50
2019-01-31T01:40:33.378Z,9.13
2019-01-31T01:43:07.683Z,6.50
2019-01-31T01:45:57.259Z,9.77
2019-01-31T01:48:31.387Z,8.50
2019-01-31T01:51:05.455Z,5.23
2019-01-31T01:53:42.591Z,4.60
2019-01-31T01:56:31.963Z,7.30
2019-01-31T01:59:09.167Z,8.30
2019-01-31T02:01:55.176Z,8.67
2019-01-31T02:04:44.843Z,7.93
2019-01-31T02:07:22.399Z,9.87
2019-01-31T02:10:16.691Z,7.80
2019-01-31T02:13:02.926Z,10.77
2019-01-31T02:15:37.047Z,9.20
2019-01-31T02:18:11.024Z,8.50
2019-01-31T02:21:11.123Z,8.67
2019-01-31T02:23:45.346Z,7.33
2019-01-31T02:26:19.575Z,8.67
2019-01-31T02:28:51.050Z,10.20
2019-01-31T02:31:25.403Z,9.23
2019-01-31T02:34:11.271Z,10.60
2019-01-31T02:36:51.339Z,10.40
2019-01-31T02:39:42.806Z,9.00
2019-01-31T02:42:25.990Z,8.70
2019-01-31T02:45:00.041Z,7.23
2019-01-31T02:47:46.562Z,8.37
2019-01-31T02:50:26.698Z,7.60
2019-01-31T02:53:09.843Z,7.17
2019-01-31T02:55:56.093Z,8.43
2019-01-31T02:58:45.664Z,8.50
2019-01-31T03:01:22.911Z,9.50
2019-01-31T03:04:11.724Z,9.07
2019-01-31T03:07:04.452Z,10.63
2019-01-31T03:09:35.926Z,9.40
2019-01-31T03:12:22.300Z,9.57
2019-01-31T03:14:53.772Z,10.37
2019-01-31T03:17:36.955Z,11.80
2019-01-31T03:20:38.555Z,11.27
2019-01-31T03:23:18.505Z,11.63
2019-01-31T03:25:58.952Z,12.60
2019-01-31T03:28:30.427Z,13.17
2019-01-31T03:31:29.346Z,14.33
2019-01-31T03:34:00.815Z,12.93
2019-01-31T03:36:55.163Z,14.97
2019-01-31T03:39:35.264Z,12.13
2019-01-31T03:42:29.382Z,13.67
2019-01-31T03:45:03.572Z,12.20
2019-01-31T03:47:49.918Z,13.90
2019-01-31T03:50:33.391Z,15.10
2019-01-31T03:53:22.942Z,14.97
2019-01-31T03:56:06.704Z,13.87
2019-01-31T03:58:46.854Z,14.77
2019-01-31T04:01:26.656Z,15.10
2019-01-31T04:04:13.224Z,14.77
2019-01-31T04:06:41.428Z,11.43
2019-01-31T04:09:09.802Z,13.27
2019-01-31T04:11:38.014Z,13.37
2019-01-31T04:14:06.211Z,15.43
2019-01-31T04:16:34.423Z,14.47
2019-01-31T04:19:02.704Z,14.10
2019-01-31T04:21:31.376Z,15.07
2019-01-31T04:23:59.589Z,15.20
2019-01-31T04:26:27.787Z,15.00
2019-01-31T04:28:55.995Z,14.27
2019-01-31T04:31:24.197Z,14.63
2019-01-31T04:33:52.399Z,17.03
2019-01-31T04:36:20.611Z,17.37
2019-01-31T04:38:48.807Z,16.90
2019-01-31T04:41:17.002Z,17.00
2019-01-31T04:43:45.232Z,15.83
2019-01-31T04:46:13.428Z,17.27
2019-01-31T04:48:42.196Z,19.90
2019-01-31T04:51:10.403Z,17.27
2019-01-31T04:53:38.612Z,15.90
2019-01-31T04:56:06.815Z,16.00
2019-01-31T04:58:35.026Z,17.03
2019-01-31T05:01:03.230Z,17.30
2019-01-31T05:03:31.423Z,17.73
2019-01-31T05:05:59.635Z,17.67
2019-01-31T05:08:30.900Z,16.50
2019-01-31T05:10:57.751Z,17.87
2019-01-31T05:13:25.959Z,16.47
2019-01-31T05:15:54.169Z,17.33
2019-01-31T05:18:22.367Z,17.13
2019-01-31T05:20:50.568Z,16.10
2019-01-31T05:23:18.783Z,15.07
2019-01-31T05:25:46.982Z,16.07
2019-01-31T05:28:15.195Z,15.00
2019-01-31T05:30:43.395Z,14.47
2019-01-31T05:33:12.074Z,22.47
2019-01-31T05:35:40.303Z,14.20
2019-01-31T05:38:08.503Z,15.53
2019-01-31T05:40:36.707Z,16.70
2019-01-31T05:43:04.907Z,15.80
2019-01-31T05:45:33.107Z,15.53
2019-01-31T05:48:01.319Z,14.40
2019-01-31T05:50:29.527Z,15.77
2019-01-31T05:52:57.719Z,16.63
2019-01-31T05:55:25.932Z,16.10
2019-01-31T05:57:54.128Z,16.47
2019-01-31T06:00:24.920Z,16.50
2019-01-31T06:02:53.122Z,15.17
2019-01-31T06:05:21.316Z,15.30
2019-01-31T06:07:49.524Z,15.77
2019-01-31T06:10:17.731Z,16.50
2019-01-31T06:12:45.927Z,21.57
2019-01-31T06:15:18.721Z,18.20
2019-01-31T06:17:46.929Z,14.57
2019-01-31T06:20:18.167Z,15.57
2019-01-31T06:22:46.371Z,16.57
2019-01-31T06:25:14.572Z,15.87
2019-01-31T06:27:42.787Z,15.17
2019-01-31T06:30:14.087Z,15.27
2019-01-31T06:32:42.283Z,13.90
2019-01-31T06:35:11.530Z,11.37
2019-01-31T06:37:39.724Z,13.57
2019-01-31T06:40:16.427Z,14.80
2019-01-31T06:42:44.630Z,15.83
2019-01-31T06:45:17.680Z,14.70
2019-01-31T06:47:45.887Z,13.73
2019-01-31T06:50:14.099Z,14.20
2019-01-31T06:52:42.370Z,15.03
2019-01-31T06:55:11.413Z,15.80
2019-01-31T06:57:39.628Z,16.27
2019-01-31T07:00:17.243Z,14.87
2019-01-31T07:02:45.447Z,14.03
2019-01-31T07:05:13.659Z,15.77
2019-01-31T07:07:41.909Z,14.43
2019-01-31T07:10:16.517Z,14.70
2019-01-31T07:12:44.712Z,13.07
2019-01-31T07:15:13.079Z,13.43
2019-01-31T07:17:41.296Z,12.90
2019-01-31T07:20:14.719Z,14.30
2019-01-31T07:22:42.936Z,14.63
2019-01-31T07:25:33.583Z,15.00
2019-01-31T07:28:01.795Z,15.93
2019-01-31T07:30:29.991Z,16.50
2019-01-31T07:32:58.199Z,16.20
2019-01-31T07:35:26.395Z,17.77
2019-01-31T07:37:54.613Z,17.33
2019-01-31T07:40:23.078Z,18.20
2019-01-31T07:42:51.275Z,20.10
2019-01-31T07:45:24.471Z,17.03
2019-01-31T07:47:52.680Z,18.73
2019-01-31T07:50:20.876Z,19.33
2019-01-31T07:52:49.089Z,19.90
2019-01-31T07:55:18.123Z,19.30
2019-01-31T07:57:46.323Z,17.97
2019-01-31T08:00:20.363Z,18.87
2019-01-31T08:02:48.579Z,19.63
2019-01-31T08:05:18.326Z,17.23
2019-01-31T08:07:46.867Z,18.20
2019-01-31T08:10:20.572Z,15.83
2019-01-31T08:12:49.023Z,17.27
2019-01-31T08:15:18.665Z,15.90
2019-01-31T08:18:06.296Z,15.17
2019-01-31T08:20:34.507Z,14.17
2019-01-31T08:23:02.710Z,12.80
2019-01-31T08:25:30.907Z,14.97
2019-01-31T08:27:59.158Z,14.63
2019-01-31T08:30:29.743Z,16.67
2019-01-31T08:32:57.943Z,15.70
2019-01-31T08:35:26.151Z,13.97
2019-01-31T08:37:54.351Z,16.80
2019-01-31T08:40:22.551Z,17.20
2019-01-31T08:42:50.768Z,17.17
2019-01-31T08:45:18.968Z,17.27
2019-01-31T08:47:47.161Z,16.80
2019-01-31T08:50:18.082Z,19.77
2019-01-31T08:52:46.283Z,17.90
2019-01-31T08:55:14.521Z,16.63
2019-01-31T08:57:42.751Z,28.87
2019-01-31T09:00:28.343Z,31.10
2019-01-31T09:02:56.539Z,63.80
2019-01-31T09:05:24.739Z,19.17
2019-01-31T09:07:53.224Z,20.40
2019-01-31T09:10:27.155Z,17.30
2019-01-31T09:12:55.503Z,16.27
2019-01-31T09:15:25.146Z,16.23
2019-01-31T09:17:53.361Z,18.23
2019-01-31T09:20:24.755Z,18.00
2019-01-31T09:22:56.233Z,18.13
2019-01-31T09:26:00.921Z,17.70
2019-01-31T09:28:37.960Z,16.60
2019-01-31T09:31:12.283Z,15.97
2019-01-31T09:33:46.391Z,14.63
2019-01-31T09:36:29.819Z,13.67
2019-01-31T09:39:22.540Z,13.53
2019-01-31T09:42:06.023Z,12.20
2019-01-31T09:44:49.595Z,12.50
2019-01-31T09:47:33.255Z,12.63
2019-01-31T09:50:13.595Z,10.50
2019-01-31T09:53:09.031Z,13.00
2019-01-31T09:55:56.907Z,11.87
2019-01-31T09:58:28.371Z,12.30
2019-01-31T10:00:59.807Z,11.13
2019-01-31T10:03:43.000Z,11.20
2019-01-31T10:06:38.651Z,10.57
2019-01-31T10:09:22.128Z,12.83
2019-01-31T10:12:16.258Z,11.33
2019-01-31T10:15:21.821Z,11.90
2019-01-31T10:17:56.212Z,13.03
2019-01-31T10:20:51.478Z,12.10
2019-01-31T10:23:39.703Z,12.80
2019-01-31T10:26:26.014Z,13.50
2019-01-31T10:29:27.732Z,12.53
2019-01-31T10:32:17.383Z,12.67
2019-01-31T10:35:23.859Z,13.17
2019-01-31T10:37:58.287Z,12.13
2019-01-31T10:40:50.635Z,13.17
2019-01-31T10:43:22.087Z,12.03
2019-01-31T10:45:56.112Z,13.00
2019-01-31T10:48:54.439Z,11.33
2019-01-31T10:51:28.988Z,12.17
2019-01-31T10:54:15.235Z,13.30
2019-01-31T10:57:03.152Z,11.93
2019-01-31T10:59:49.487Z,11.90
2019-01-31T11:02:47.861Z,10.23
2019-01-31T11:05:21.584Z,9.70
2019-01-31T11:08:07.763Z,9.13
2019-01-31T11:10:41.871Z,9.60
2019-01-31T11:13:31.259Z,9.07
2019-01-31T11:16:08.706Z,9.63
2019-01-31T11:18:52.199Z,9.40
2019-01-31T11:21:59.674Z,8.87
2019-01-31T11:24:31.127Z,8.63
2019-01-31T11:27:21.867Z,8.30
2019-01-31T11:30:05.611Z,9.10
2019-01-31T11:32:52.217Z,8.87
2019-01-31T11:35:29.538Z,8.70
2019-01-31T11:38:15.744Z,9.27
2019-01-31T11:40:59.263Z,8.87
2019-01-31T11:43:51.844Z,8.63
2019-01-31T11:46:32.114Z,8.97
2019-01-31T11:49:03.564Z,8.80
2019-01-31T12:06:44.208Z,10.07
2019-01-31T12:09:13.947Z,10.37
2019-01-31T12:11:42.803Z,9.57
2019-01-31T12:14:11.009Z,10.13
2019-01-31T12:16:39.199Z,10.67
2019-01-31T12:19:07.666Z,9.83
2019-01-31T12:21:35.979Z,9.07
2019-01-31T12:24:04.171Z,9.27
2019-01-31T12:26:32.376Z,9.33
2019-01-31T12:29:00.564Z,9.63
2019-01-31T12:31:28.767Z,9.97
2019-01-31T12:33:56.964Z,9.20
2019-01-31T12:36:25.161Z,9.17
2019-01-31T12:38:55.009Z,9.43
2019-01-31T12:41:23.340Z,10.03
2019-01-31T12:43:51.526Z,9.77
2019-01-31T12:46:19.728Z,9.73
2019-01-31T12:48:47.923Z,10.03
2019-01-31T12:51:16.133Z,9.73
2019-01-31T12:53:44.326Z,9.97
2019-01-31T12:56:12.528Z,10.27
2019-01-31T12:58:40.739Z,10.83
2019-01-31T13:01:08.931Z,11.00
2019-01-31T13:03:37.135Z,11.17
2019-01-31T13:06:05.346Z,10.07
2019-01-31T13:08:33.533Z,10.50
2019-01-31T13:11:01.736Z,10.50
2019-01-31T13:13:29.938Z,11.40
2019-01-31T13:15:58.131Z,11.73
2019-01-31T13:18:26.336Z,12.93
2019-01-31T13:20:54.607Z,15.00
2019-01-31T13:23:22.823Z,15.50
2019-01-31T13:25:51.010Z,15.13
2019-01-31T13:28:19.215Z,16.50
2019-01-31T13:30:47.406Z,17.17
2019-01-31T13:33:15.613Z,16.27
2019-01-31T13:35:43.967Z,15.10
2019-01-31T13:38:12.158Z,15.53
2019-01-31T13:40:40.372Z,14.93
2019-01-31T13:43:08.599Z,14.30
2019-01-31T13:45:36.790Z,15.17
2019-01-31T13:48:07.594Z,15.43
2019-01-31T13:50:35.803Z,14.73
2019-01-31T13:53:05.814Z,14.97
2019-01-31T13:55:34.019Z,15.93
2019-01-31T13:58:02.888Z,15.07
2019-01-31T14:00:31.087Z,14.27
2019-01-31T14:02:59.287Z,15.00
2019-01-31T14:05:29.783Z,13.50
2019-01-31T14:07:57.395Z,13.77
2019-01-31T14:10:26.649Z,14.33
2019-01-31T14:12:54.843Z,14.53
2019-01-31T14:15:33.568Z,14.20
2019-01-31T14:17:58.779Z,14.60
2019-01-31T14:20:27.911Z,15.83
2019-01-31T14:22:56.103Z,16.13
2019-01-31T14:25:24.295Z,17.37
2019-01-31T14:27:52.485Z,16.40
2019-01-31T14:30:23.572Z,16.90
2019-01-31T14:32:52.143Z,16.37
2019-01-31T14:35:20.334Z,16.33
2019-01-31T14:37:48.534Z,15.47
2019-01-31T14:40:16.729Z,15.47
2019-01-31T14:42:45.015Z,14.97
2019-01-31T14:45:16.907Z,15.23
2019-01-31T14:47:45.095Z,16.77
2019-01-31T14:50:19.343Z,19.33
2019-01-31T14:52:47.542Z,15.00
2019-01-31T14:55:35.164Z,16.40
2019-01-31T14:58:03.367Z,17.73
2019-01-31T15:00:32.606Z,20.97
2019-01-31T15:03:00.807Z,17.90
2019-01-31T15:05:29.367Z,19.00
2019-01-31T15:07:57.572Z,16.20
2019-01-31T15:10:27.618Z,19.77
2019-01-31T15:12:55.815Z,15.27
2019-01-31T15:15:24.015Z,14.87
2019-01-31T15:17:53.131Z,12.70
2019-01-31T15:20:38.118Z,12.87
2019-01-31T15:23:03.254Z,15.87
2019-01-31T15:25:31.455Z,19.90
2019-01-31T15:27:59.658Z,19.17
2019-01-31T15:30:37.673Z,17.30
2019-01-31T15:33:10.820Z,22.07
2019-01-31T15:35:39.027Z,20.33
2019-01-31T15:38:07.229Z,19.30
2019-01-31T15:40:41.016Z,22.70
2019-01-31T15:43:09.208Z,20.13
2019-01-31T15:45:37.420Z,19.97
2019-01-31T15:48:06.055Z,21.73
2019-01-31T15:50:34.264Z,20.70
2019-01-31T15:53:02.494Z,23.33
2019-01-31T15:55:30.700Z,23.57
2019-01-31T15:57:58.907Z,22.77
2019-01-31T16:00:37.599Z,24.87
2019-01-31T16:03:06.846Z,25.53
2019-01-31T16:05:35.051Z,22.33
2019-01-31T16:08:03.315Z,24.13
2019-01-31T16:10:31.584Z,26.57
2019-01-31T16:12:59.850Z,26.23
2019-01-31T16:15:28.185Z,27.23
2019-01-31T16:17:56.444Z,23.83
2019-01-31T16:20:24.639Z,28.97
2019-01-31T16:22:52.857Z,28.97
2019-01-31T16:25:21.055Z,29.70
2019-01-31T16:27:49.267Z,29.50
2019-01-31T16:30:19.101Z,27.63
2019-01-31T16:32:47.282Z,28.20
2019-01-31T16:35:17.473Z,31.70
2019-01-31T16:37:45.669Z,31.20
2019-01-31T16:40:15.415Z,30.83
2019-01-31T16:42:43.622Z,30.07
2019-01-31T16:45:13.376Z,28.20
2019-01-31T16:47:41.571Z,31.60
2019-01-31T16:50:12.127Z,33.53
2019-01-31T16:52:40.323Z,30.77
2019-01-31T16:55:11.731Z,32.27
2019-01-31T16:57:39.934Z,31.90
2019-01-31T17:00:11.419Z,36.87
2019-01-31T17:02:39.611Z,34.20
2019-01-31T17:05:11.072Z,31.30
2019-01-31T17:07:39.271Z,29.13
2019-01-31T17:10:07.547Z,28.67
2019-01-31T17:12:35.752Z,30.63
2019-01-31T17:15:17.530Z,28.83
2019-01-31T17:17:36.215Z,28.70
2019-01-31T17:20:07.676Z,26.83
2019-01-31T17:22:35.884Z,29.17
2019-01-31T17:25:07.576Z,27.87
2019-01-31T17:27:35.779Z,29.57
2019-01-31T17:30:06.673Z,28.23
2019-01-31T17:32:34.882Z,25.40
2019-01-31T17:35:03.140Z,28.43
2019-01-31T17:37:31.331Z,27.13
2019-01-31T17:39:59.540Z,30.63
2019-01-31T17:42:27.748Z,30.03
2019-01-31T17:44:55.944Z,31.67
2019-01-31T17:47:24.136Z,28.20
2019-01-31T17:49:52.339Z,31.23
2019-01-31T17:52:20.535Z,30.23
2019-01-31T17:54:48.727Z,30.07
2019-01-31T17:57:16.937Z,29.80
2019-01-31T17:59:45.155Z,30.83
2019-01-31T18:02:13.340Z,30.40
2019-01-31T18:04:41.547Z,31.30
2019-01-31T18:07:09.753Z,32.30
2019-01-31T18:09:37.959Z,28.47
2019-01-31T18:12:06.243Z,27.27
2019-01-31T18:14:34.451Z,27.43
2019-01-31T18:17:02.660Z,23.80
2019-01-31T18:19:50.300Z,25.83
2019-01-31T18:22:18.502Z,24.30
2019-01-31T18:24:46.695Z,25.57
2019-01-31T18:27:14.954Z,27.37
2019-01-31T18:29:43.204Z,28.87
2019-01-31T18:32:11.404Z,28.43
2019-01-31T18:34:39.619Z,31.43
2019-01-31T18:37:07.828Z,27.47
2019-01-31T18:39:36.035Z,27.07
2019-01-31T18:42:04.251Z,29.67
2019-01-31T18:44:32.463Z,27.53
2019-01-31T18:47:00.673Z,33.40
2019-01-31T18:49:28.873Z,31.23
2019-01-31T18:51:57.087Z,31.93
2019-01-31T18:54:25.311Z,32.37
2019-01-31T18:56:53.511Z,29.17
2019-01-31T18:59:21.728Z,37.70
2019-01-31T19:01:49.941Z,37.43
2019-01-31T19:04:18.714Z,35.93
2019-01-31T19:06:46.936Z,32.00
2019-01-31T19:09:15.139Z,28.17
2019-01-31T19:11:43.339Z,32.60
2019-01-31T19:14:14.295Z,32.97
2019-01-31T19:16:41.487Z,29.17
2019-01-31T19:19:09.696Z,31.00
2019-01-31T19:21:37.921Z,31.40
2019-01-31T19:24:06.150Z,33.77
2019-01-31T19:26:34.351Z,33.23
2019-01-31T19:29:02.563Z,33.97
2019-01-31T19:31:30.995Z,33.93
2019-01-31T19:33:59.212Z,31.50
2019-01-31T19:36:27.580Z,28.63
2019-01-31T19:38:55.796Z,32.47
2019-01-31T19:41:24.668Z,34.07
2019-01-31T19:43:53.447Z,28.23
2019-01-31T19:46:41.132Z,24.80
2019-01-31T19:49:11.111Z,18.53
2019-01-31T19:51:59.812Z,29.83
2019-01-31T19:54:26.323Z,26.47
2019-01-31T19:56:54.747Z,16.33
2019-01-31T19:59:33.240Z,23.97
2019-01-31T20:01:53.034Z,23.57
2019-01-31T20:04:21.348Z,14.27
2019-01-31T20:06:49.602Z,14.93
2019-01-31T20:09:19.496Z,13.20
2019-01-31T20:11:47.745Z,18.23
2019-01-31T20:14:16.031Z,13.57
2019-01-31T20:16:46.005Z,18.53
2019-01-31T20:19:14.398Z,14.77
2019-01-31T20:21:44.375Z,15.53
2019-01-31T20:24:12.720Z,15.67
2019-01-31T20:26:44.777Z,14.80
2019-01-31T20:29:14.904Z,14.83
2019-01-31T20:31:42.917Z,15.63
2019-01-31T20:34:12.956Z,11.00
2019-01-31T20:36:42.521Z,7.10
2019-01-31T20:39:10.930Z,14.93
2019-01-31T20:41:40.517Z,14.10
2019-01-31T20:44:10.028Z,11.67
2019-01-31T20:46:40.565Z,11.30
2019-01-31T20:49:10.117Z,11.57
2019-01-31T20:51:40.773Z,11.57
2019-01-31T20:54:08.502Z,15.60
2019-01-31T20:56:38.374Z,12.10
2019-01-31T20:59:06.692Z,11.77
2019-01-31T21:01:36.721Z,12.57
2019-01-31T21:04:05.111Z,14.00
2019-01-31T21:06:41.076Z,9.10
2019-01-31T21:11:57.402Z,13.50
2019-01-31T21:14:27.372Z,8.73
2019-01-31T21:16:55.708Z,9.77
2019-01-31T21:19:25.754Z,6.10
2019-01-31T21:21:55.296Z,10.23
2019-01-31T21:24:23.463Z,9.83
2019-01-31T21:26:51.671Z,9.90
2019-01-31T21:29:19.863Z,7.03
2019-01-31T21:31:48.076Z,10.73
2019-01-31T21:34:16.284Z,7.23
2019-01-31T21:36:45.051Z,8.77
2019-01-31T21:39:13.247Z,8.87
2019-01-31T21:41:41.456Z,8.33
2019-01-31T21:44:09.669Z,11.67
2019-01-31T21:46:37.876Z,12.13
2019-01-31T21:49:06.071Z,13.23
2019-01-31T21:51:34.275Z,8.60
2019-01-31T21:54:03.067Z,12.73
2019-01-31T21:56:31.265Z,7.37
2019-01-31T21:58:59.457Z,12.17
2019-01-31T22:01:27.668Z,8.10
2019-01-31T22:03:55.863Z,11.33
2019-01-31T22:06:24.068Z,10.47
2019-01-31T22:08:52.279Z,13.53
2019-01-31T22:11:39.915Z,14.30
2019-01-31T22:14:08.120Z,14.07
2019-01-31T22:16:36.323Z,7.43
2019-01-31T22:19:04.535Z,11.20
2019-01-31T22:21:32.755Z,10.23
2019-01-31T22:24:00.951Z,10.30
2019-01-31T22:26:29.146Z,12.57
2019-01-31T22:28:57.360Z,9.07
2019-01-31T22:31:25.560Z,11.77
2019-01-31T22:33:53.763Z,10.63
2019-01-31T22:36:21.993Z,7.87
2019-01-31T22:38:50.176Z,8.23
2019-01-31T22:41:18.389Z,8.43
2019-01-31T22:43:46.579Z,10.03
2019-01-31T22:46:14.788Z,12.07
2019-01-31T22:48:42.987Z,10.07
2019-01-31T22:51:11.195Z,9.30
2019-01-31T22:53:39.396Z,11.63
2019-01-31T22:56:07.596Z,9.23
2019-01-31T22:58:35.803Z,6.57
2019-01-31T23:01:16.935Z,7.73
2019-01-31T23:03:45.146Z,7.03
2019-01-31T23:06:13.340Z,10.20
2019-01-31T23:08:41.552Z,10.33
2019-01-31T23:11:09.752Z,7.50
2019-01-31T23:13:37.955Z,9.53
2019-01-31T23:16:06.163Z,7.13
2019-01-31T23:18:34.363Z,10.13
2019-01-31T23:21:02.567Z,5.40
2019-01-31T23:23:30.763Z,7.93
2019-01-31T23:25:58.977Z,9.63
2019-01-31T23:28:27.172Z,7.87
2019-01-31T23:30:55.380Z,8.03
2019-01-31T23:33:23.575Z,8.80
2019-01-31T23:35:51.793Z,10.93
2019-01-31T23:38:19.979Z,9.97
2019-01-31T23:40:48.201Z,11.33
2019-01-31T23:43:16.395Z,11.17
2019-01-31T23:45:44.585Z,9.13
2019-01-31T23:48:12.782Z,9.77
2019-01-31T23:50:40.983Z,9.53
2019-01-31T23:53:09.184Z,8.67
2019-01-31T23:55:37.387Z,10.30
2019-01-31T23:58:05.583Z,10.87
